Time;durP1;ratioP1;P1;durP2;ratioP2;P2;SDS_P1;SDS_P2;PMS_P1;PMS_P2;Temp;Humidity;BMP_temperature;BMP_pressure;BME280_temperature;BME280_humidity;BME280_pressure;Samples;Min_cycle;Max_cycle;Signal;HPM_P1;HPM_P2
2022/08/02 00:01:36;;;;;;;5.20;2.05;;;;;;;14.86;86.09;101690.56;5264240;28;20032;-70
2022/08/02 00:04:09;;;;;;;7.53;1.90;;;;;;;14.88;85.88;101694.84;5252324;28;20032;-70
2022/08/02 00:06:40;;;;;;;3.70;1.67;;;;;;;14.74;82.03;101688.88;5251277;28;20036;-69
2022/08/02 00:09:11;;;;;;;6.13;1.77;;;;;;;14.75;83.86;101690.63;5251423;28;20033;-69
2022/08/02 00:11:43;;;;;;;5.75;2.30;;;;;;;14.70;82.60;101694.50;5255451;28;21226;-69
2022/08/02 00:14:14;;;;;;;5.07;1.90;;;;;;;14.74;82.10;101686.19;5247859;28;20533;-70
2022/08/02 00:16:45;;;;;;;4.07;1.98;;;;;;;14.63;80.17;101684.38;5254257;28;20028;-69
2022/08/02 00:19:17;;;;;;;4.53;2.08;;;;;;;14.63;82.20;101682.56;5257162;28;20025;-70
2022/08/02 00:21:48;;;;;;;4.43;2.22;;;;;;;14.63;82.34;101684.38;5263195;28;20037;-69
2022/08/02 00:24:19;;;;;;;6.05;2.10;;;;;;;14.68;85.02;101696.44;5258225;28;20581;-69
2022/08/02 00:26:50;;;;;;;5.75;1.90;;;;;;;14.63;84.93;101693.31;5252756;28;20552;-70
2022/08/02 00:29:22;;;;;;;6.10;2.20;;;;;;;14.75;88.26;101702.19;5253600;28;20654;-70
2022/08/02 00:31:53;;;;;;;4.70;2.13;;;;;;;14.68;85.35;101703.66;5253236;28;20036;-70
2022/08/02 00:34:24;;;;;;;3.13;1.70;;;;;;;14.74;88.52;101705.84;5256460;28;20358;-69
2022/08/02 00:36:56;;;;;;;4.88;2.15;;;;;;;14.84;85.06;101705.97;5254754;28;20028;-70
2022/08/02 00:39:27;;;;;;;3.53;1.63;;;;;;;14.76;85.63;101701.22;5253542;28;20036;-69
2022/08/02 00:41:58;;;;;;;4.15;2.20;;;;;;;14.74;88.22;101695.09;5257870;28;20063;-69
2022/08/02 00:44:30;;;;;;;5.10;1.80;;;;;;;14.71;86.86;101692.69;5259064;28;20082;-69
2022/08/02 00:47:01;;;;;;;3.92;1.55;;;;;;;14.78;86.08;101690.34;5252864;28;20024;-70
2022/08/02 00:49:33;;;;;;;4.85;2.00;;;;;;;14.66;83.66;101694.88;5263512;28;20067;-69
2022/08/02 00:52:04;;;;;;;4.95;1.40;;;;;;;14.73;82.99;101682.66;5262072;28;20116;-70
2022/08/02 00:54:36;;;;;;;5.15;1.90;;;;;;;14.74;86.35;101681.69;5260190;28;20090;-70
2022/08/02 00:57:07;;;;;;;4.78;1.60;;;;;;;14.65;80.74;101666.28;5250382;28;20025;-69
2022/08/02 00:59:40;;;;;;;3.33;1.98;;;;;;;14.65;81.24;101677.03;5255942;28;20561;-69
2022/08/02 01:02:12;;;;;;;5.27;1.30;;;;;;;14.65;82.41;101672.53;5250542;28;20056;-69
2022/08/02 01:04:44;;;;;;;4.20;1.60;;;;;;;14.67;84.09;101664.38;5255196;28;20115;-70
2022/08/02 01:07:15;;;;;;;3.42;1.20;;;;;;;14.58;80.00;101665.94;5258012;28;20102;-71
2022/08/02 01:09:46;;;;;;;5.60;1.52;;;;;;;14.69;82.38;101657.03;5263714;28;20123;-69
2022/08/02 01:12:18;;;;;;;5.18;1.40;;;;;;;14.68;80.51;101663.38;5265531;28;20448;-69
2022/08/02 01:14:51;;;;;;;5.28;1.50;;;;;;;14.63;80.92;101668.25;5261410;28;20924;-69
2022/08/02 01:17:42;;;;;;;5.85;1.60;;;;;;;14.63;83.37;101663.75;5254151;28;20035;-70
2022/08/02 01:20:20;;;;;;;3.15;1.17;;;;;;;14.56;83.30;101672.41;5261204;28;20355;-69
2022/08/02 01:23:16;;;;;;;4.30;1.67;;;;;;;14.62;86.18;101671.94;5256731;28;20035;-70
2022/08/02 01:26:22;;;;;;;3.90;1.63;;;;;;;14.70;84.21;101674.84;5259846;28;21286;-70
2022/08/02 01:29:02;;;;;;;5.43;1.50;;;;;;;14.64;86.26;101668.13;5251824;28;20070;-69
2022/08/02 01:31:39;;;;;;;5.03;1.70;;;;;;;14.67;85.18;101675.13;5253959;28;20509;-70
2022/08/02 01:34:17;;;;;;;4.63;1.60;;;;;;;14.68;84.14;101669.59;5248393;28;20494;-69
2022/08/02 01:37:02;;;;;;;6.43;1.70;;;;;;;14.73;85.48;101666.56;5252098;28;20028;-69
2022/08/02 01:39:34;;;;;;;;;;;;;;;14.79;84.19;101673.25;5252402;28;20406;-70
2022/08/02 01:42:07;;;;;;;4.53;1.80;;;;;;;14.72;81.27;101664.84;5252233;28;19916;-70
2022/08/02 01:44:41;;;;;;;5.78;1.70;;;;;;;14.78;87.61;101661.63;5250612;28;20032;-69
2022/08/02 01:47:20;;;;;;;3.78;1.73;;;;;;;14.79;84.35;101665.19;5252846;28;20033;-69
2022/08/02 01:49:55;;;;;;;3.35;1.55;;;;;;;14.76;82.84;101657.38;5248011;28;20027;-70
2022/08/02 01:52:30;;;;;;;4.05;1.67;;;;;;;14.67;83.92;101657.16;5258089;28;20040;-69
2022/08/02 01:55:22;;;;;;;4.25;1.88;;;;;;;14.69;79.65;101651.66;5265149;28;20035;-69
2022/08/02 01:57:59;;;;;;;4.47;1.75;;;;;;;14.62;78.75;101647.75;5250373;28;20033;-70
2022/08/02 02:00:35;;;;;;;5.45;1.50;;;;;;;14.58;79.97;101647.16;5245337;28;20049;-70
2022/08/02 02:03:13;;;;;;;4.22;1.45;;;;;;;14.61;79.87;101643.34;5250007;28;20037;-69
2022/08/02 02:05:47;;;;;;;7.00;1.75;;;;;;;14.66;83.34;101642.00;5252854;28;20029;-70
2022/08/02 02:08:30;;;;;;;4.75;1.63;;;;;;;14.50;81.35;101644.22;5250256;28;20023;-69
2022/08/02 02:11:02;;;;;;;7.18;2.03;;;;;;;14.43;82.11;101630.41;5260999;28;20036;-70
2022/08/02 02:13:36;;;;;;;4.63;1.67;;;;;;;14.49;84.25;101639.81;5254577;28;20032;-68
2022/08/02 02:16:10;;;;;;;6.70;2.15;;;;;;;14.46;84.72;101632.00;5263703;28;20398;-69
2022/08/02 02:18:43;;;;;;;4.40;1.80;;;;;;;14.50;86.19;101630.78;5271539;28;20131;-69
2022/08/02 02:21:15;;;;;;;4.27;1.70;;;;;;;14.45;84.22;101624.91;5259763;28;20028;-69
2022/08/02 02:23:46;;;;;;;5.95;1.85;;;;;;;14.47;86.48;101615.75;5272594;28;20301;-69
2022/08/02 02:26:18;;;;;;;5.68;1.80;;;;;;;14.38;85.60;101616.50;5264834;28;20040;-69
2022/08/02 02:28:52;;;;;;;5.28;1.75;;;;;;;14.46;88.92;101605.16;5274560;28;20062;-69
2022/08/02 02:31:25;;;;;;;5.85;1.90;;;;;;;14.34;85.26;101603.44;5266699;28;20666;-69
2022/08/02 02:34:01;;;;;;;6.00;1.85;;;;;;;14.29;84.15;101609.19;5265309;28;20449;-69
2022/08/02 02:36:34;;;;;;;6.40;2.05;;;;;;;14.40;90.39;101608.31;5260804;28;20024;-69
2022/08/02 02:39:09;;;;;;;6.90;1.70;;;;;;;14.34;86.00;101609.66;5266142;28;20033;-69
2022/08/02 02:41:43;;;;;;;7.32;1.92;;;;;;;14.36;90.11;101620.28;5266870;28;20031;-69
2022/08/02 02:44:18;;;;;;;5.68;2.10;;;;;;;14.31;90.69;101621.50;5264508;28;20035;-69
2022/08/02 02:46:53;;;;;;;4.68;1.52;;;;;;;14.28;85.55;101619.06;5264391;28;20028;-69
2022/08/02 02:49:26;;;;;;;6.60;2.00;;;;;;;14.23;87.40;101613.22;5264714;28;20029;-69
2022/08/02 02:51:58;;;;;;;8.37;1.90;;;;;;;14.20;85.89;101616.13;5266593;28;20047;-69
2022/08/02 02:54:31;;;;;;;5.70;1.80;;;;;;;14.17;86.27;101613.72;5270096;28;20029;-69
2022/08/02 02:57:04;;;;;;;4.53;1.80;;;;;;;14.16;85.24;101612.00;5269588;28;20027;-69
2022/08/02 02:59:38;;;;;;;5.28;1.70;;;;;;;14.29;90.04;101620.78;5256037;28;20517;-69
2022/08/02 03:02:10;;;;;;;6.33;1.93;;;;;;;14.11;85.73;101617.75;5273173;28;20044;-69
2022/08/02 03:04:43;;;;;;;5.90;2.17;;;;;;;14.08;85.68;101611.75;5267569;28;20099;-69
2022/08/02 03:07:14;;;;;;;5.78;1.92;;;;;;;14.15;90.04;101612.09;5264413;28;20394;-69
2022/08/02 03:09:46;;;;;;;5.38;1.88;;;;;;;14.07;86.60;101597.47;5272703;28;20024;-69
2022/08/02 03:12:17;;;;;;;7.05;2.17;;;;;;;14.06;88.33;101600.28;5265892;28;20059;-69
2022/08/02 03:14:49;;;;;;;5.93;2.28;;;;;;;14.04;87.02;101602.25;5265951;28;20086;-69
2022/08/02 03:17:20;;;;;;;6.43;1.95;;;;;;;14.21;91.85;101604.44;5257015;28;20113;-69
2022/08/02 03:19:51;;;;;;;5.50;2.08;;;;;;;14.09;88.56;101594.66;5252257;28;20051;-69
2022/08/02 03:22:22;;;;;;;3.85;2.10;;;;;;;14.23;92.65;101602.50;5258913;28;20031;-69
2022/08/02 03:24:54;;;;;;;5.70;2.03;;;;;;;14.13;89.44;101601.50;5268779;28;20027;-69
2022/08/02 03:27:25;;;;;;;6.65;2.10;;;;;;;14.15;90.31;101598.69;5261665;28;20127;-69
2022/08/02 03:29:56;;;;;;;5.13;2.08;;;;;;;14.11;88.43;101608.81;5254952;28;20050;-69
2022/08/02 03:32:28;;;;;;;7.50;2.30;;;;;;;14.07;88.38;101607.34;5265178;28;20411;-69
2022/08/02 03:35:00;;;;;;;5.22;1.90;;;;;;;14.01;87.42;101610.53;5269975;28;20425;-69
2022/08/02 03:37:32;;;;;;;6.63;2.00;;;;;;;14.06;91.65;101608.34;5259710;28;20021;-69
2022/08/02 03:40:09;;;;;;;6.43;2.20;;;;;;;14.08;94.04;101584.91;5259564;28;20401;-69
2022/08/02 03:42:41;;;;;;;5.25;2.03;;;;;;;13.99;90.53;101589.19;5252471;28;20044;-69
2022/08/02 03:45:12;;;;;;;7.95;2.45;;;;;;;13.97;89.16;101587.59;5254189;28;20024;-69
2022/08/02 03:47:43;;;;;;;5.20;2.05;;;;;;;14.10;93.56;101588.34;5255237;28;20471;-69
2022/08/02 03:50:15;;;;;;;5.50;1.77;;;;;;;13.93;89.57;101582.47;5257026;28;20262;-69
2022/08/02 03:52:46;;;;;;;4.88;2.05;;;;;;;13.92;90.11;101586.13;5260229;28;20021;-69
2022/08/02 03:55:18;;;;;;;4.07;2.10;;;;;;;13.97;92.07;101580.41;5266393;28;20040;-69
2022/08/02 03:57:50;;;;;;;6.57;2.20;;;;;;;14.04;92.64;101576.25;5263789;28;20363;-69
2022/08/02 04:00:21;;;;;;;5.38;2.13;;;;;;;14.08;94.76;101571.50;5255487;28;20088;-69
2022/08/02 04:02:53;;;;;;;7.97;2.60;;;;;;;14.09;92.72;101573.19;5262701;28;20056;-69
2022/08/02 04:05:24;;;;;;;8.73;3.10;;;;;;;14.04;90.42;101572.72;5251816;28;20025;-69
2022/08/02 04:07:56;;;;;;;7.18;2.60;;;;;;;14.09;89.95;101565.16;5258078;28;20398;-69
2022/08/02 04:10:27;;;;;;;6.60;2.92;;;;;;;14.20;92.01;101558.94;5258870;28;20029;-69
2022/08/02 04:12:59;;;;;;;4.40;2.58;;;;;;;14.17;91.93;101554.66;5262858;28;20035;-69
2022/08/02 04:15:30;;;;;;;5.18;2.50;;;;;;;14.27;95.07;101566.38;5255586;28;20512;-69
2022/08/02 04:18:02;;;;;;;6.35;2.38;;;;;;;14.21;89.96;101558.81;5256338;28;20032;-69
2022/08/02 04:20:36;;;;;;;6.13;2.90;;;;;;;14.20;89.22;101570.50;5260730;28;20028;-69
2022/08/02 04:23:10;;;;;;;6.23;2.70;;;;;;;14.21;90.97;101557.94;5251547;28;20064;-69
2022/08/02 04:25:43;;;;;;;8.25;3.13;;;;;;;14.19;90.95;101562.56;5264265;28;20294;-69
2022/08/02 04:28:15;;;;;;;7.65;3.22;;;;;;;14.24;92.58;101566.59;5255977;28;20029;-69
2022/08/02 04:30:49;;;;;;;4.78;2.95;;;;;;;14.23;90.40;101564.91;5253444;28;20033;-69
2022/08/02 04:33:21;;;;;;;7.45;3.10;;;;;;;14.28;90.50;101556.47;5250372;28;20025;-69
2022/08/02 04:35:52;;;;;;;7.50;3.20;;;;;;;14.32;92.43;101568.66;5250916;28;20434;-69
2022/08/02 04:38:24;;;;;;;5.38;3.08;;;;;;;14.29;92.02;101577.81;5262806;28;20131;-69
2022/08/02 04:40:56;;;;;;;6.63;3.20;;;;;;;14.39;90.60;101575.25;5255258;28;20494;-69
2022/08/02 04:43:27;;;;;;;7.30;2.83;;;;;;;14.35;91.01;101581.00;5257960;28;20123;-69
2022/08/02 04:46:01;;;;;;;8.70;3.08;;;;;;;14.41;92.64;101575.13;5253223;28;20036;-69
2022/08/02 04:48:32;;;;;;;6.97;3.55;;;;;;;14.43;91.81;101573.19;5252150;28;20025;-69
2022/08/02 04:51:04;;;;;;;7.75;3.28;;;;;;;14.40;91.61;101562.66;5255201;28;20071;-69
2022/08/02 04:53:35;;;;;;;6.60;3.55;;;;;;;14.48;93.12;101576.34;5251218;28;20156;-69
2022/08/02 04:56:06;;;;;;;6.97;3.72;;;;;;;14.49;93.38;101567.28;5262811;28;20045;-69
2022/08/02 04:58:38;;;;;;;6.60;3.45;;;;;;;14.48;94.24;101557.56;5260920;28;20116;-69
2022/08/02 05:01:09;;;;;;;10.52;4.22;;;;;;;14.56;93.31;101562.28;5259962;28;20029;-69
2022/08/02 05:03:40;;;;;;;6.95;4.50;;;;;;;14.58;94.08;101557.69;5247783;28;20093;-69
2022/08/02 05:06:12;;;;;;;9.57;4.25;;;;;;;14.61;93.92;101557.41;5249006;28;21685;-69
2022/08/02 05:08:43;;;;;;;7.05;3.85;;;;;;;14.74;95.95;101560.78;5254911;28;20486;-69
2022/08/02 05:11:14;;;;;;;8.85;4.80;;;;;;;14.75;96.16;101564.34;5255159;28;21530;-70
2022/08/02 05:13:45;;;;;;;10.30;5.40;;;;;;;14.77;94.86;101563.25;5252462;28;20036;-69
2022/08/02 05:16:17;;;;;;;8.35;4.90;;;;;;;14.80;95.32;101565.66;5249786;28;20124;-69
2022/08/02 05:18:49;;;;;;;10.40;5.47;;;;;;;14.81;96.16;101564.69;5252948;28;20709;-69
2022/08/02 05:21:21;;;;;;;11.48;5.35;;;;;;;14.91;96.58;101559.41;5252399;28;20043;-69
2022/08/02 05:23:52;;;;;;;11.57;6.00;;;;;;;14.89;96.36;101556.84;5261598;28;20037;-69
2022/08/02 05:26:23;;;;;;;13.43;5.82;;;;;;;14.96;96.70;101549.13;5267459;28;20035;-68
2022/08/02 05:28:54;;;;;;;9.30;5.80;;;;;;;14.99;96.08;101548.84;5273049;28;20059;-69
2022/08/02 05:31:26;;;;;;;10.80;5.85;;;;;;;15.02;96.69;101551.28;5260819;28;20031;-69
2022/08/02 05:33:57;;;;;;;12.52;6.82;;;;;;;15.09;97.24;101539.03;5264133;28;20028;-69
2022/08/02 05:36:28;;;;;;;9.30;6.05;;;;;;;15.15;96.54;101536.81;5264286;28;20086;-69
2022/08/02 05:39:00;;;;;;;11.40;6.20;;;;;;;15.21;98.88;101541.69;5266835;28;20133;-69
2022/08/02 05:41:31;;;;;;;10.52;6.18;;;;;;;15.27;97.56;101551.91;5261041;28;20028;-69
2022/08/02 05:44:03;;;;;;;10.77;6.50;;;;;;;15.34;97.77;101554.91;5267630;28;20109;-69
2022/08/02 05:46:34;;;;;;;11.63;7.20;;;;;;;15.48;97.36;101539.31;5263934;28;20039;-69
2022/08/02 05:49:05;;;;;;;9.82;6.88;;;;;;;15.56;97.57;101548.56;5275131;28;20028;-69
2022/08/02 05:51:41;;;;;;;10.13;6.30;;;;;;;15.60;97.18;101547.28;5270096;28;20028;-69
2022/08/02 05:54:30;;;;;;;9.60;5.85;;;;;;;15.71;97.95;101563.38;5276001;28;20027;-69
2022/08/02 05:57:29;;;;;;;10.00;6.78;;;;;;;15.86;98.44;101561.22;5271223;28;20475;-69
2022/08/02 06:00:10;;;;;;;11.57;6.47;;;;;;;16.11;97.32;101569.78;5269947;28;20094;-68
2022/08/02 06:02:41;;;;;;;10.13;6.57;;;;;;;16.33;97.69;101574.13;5265326;28;22048;-68
2022/08/02 06:05:17;;;;;;;9.75;6.70;;;;;;;16.45;97.29;101576.59;5267420;28;20025;-69
2022/08/02 06:07:49;;;;;;;9.23;6.60;;;;;;;16.56;96.08;101572.06;5269703;28;20047;-69
2022/08/02 06:10:21;;;;;;;9.10;6.45;;;;;;;16.73;96.16;101578.63;5256326;28;20024;-68
2022/08/02 06:13:12;;;;;;;10.73;6.80;;;;;;;16.80;94.96;101580.63;5254825;28;20471;-68
2022/08/02 06:15:44;;;;;;;9.65;6.35;;;;;;;16.87;94.86;101583.63;5259891;28;20032;-69
2022/08/02 06:18:15;;;;;;;10.40;7.32;;;;;;;17.00;94.00;101583.34;5257392;28;20521;-68
2022/08/02 06:20:50;;;;;;;9.38;6.28;;;;;;;17.11;94.23;101576.97;5258185;28;20052;-69
2022/08/02 06:23:22;;;;;;;9.48;6.53;;;;;;;17.12;94.50;101576.81;5259912;28;20025;-69
2022/08/02 06:25:55;;;;;;;8.70;7.03;;;;;;;17.11;94.38;101585.91;5255437;28;20025;-68
2022/08/02 06:28:28;;;;;;;14.20;7.60;;;;;;;17.13;93.96;101577.69;5255211;28;20028;-69
2022/08/02 06:31:00;;;;;;;11.57;7.25;;;;;;;17.14;94.39;101571.28;5258882;28;20028;-69
2022/08/02 06:33:32;;;;;;;10.77;6.95;;;;;;;17.11;96.22;101564.34;5264074;28;20102;-69
2022/08/02 06:36:18;;;;;;;12.82;6.95;;;;;;;17.16;94.56;101567.47;5254423;28;20033;-69
2022/08/02 06:39:03;;;;;;;11.30;6.75;;;;;;;17.18;94.71;101570.88;5259742;28;20429;-69
2022/08/02 06:41:41;;;;;;;10.02;6.78;;;;;;;17.23;94.96;101570.44;5261686;28;20039;-69
2022/08/02 06:44:12;;;;;;;12.00;7.80;;;;;;;17.26;95.92;101562.06;5258540;28;20852;-68
2022/08/02 06:46:43;;;;;;;14.70;8.48;;;;;;;17.34;95.67;101566.75;5256493;28;20052;-69
2022/08/02 06:49:15;;;;;;;12.82;9.48;;;;;;;17.41;95.17;101560.63;5261518;28;20028;-69
2022/08/02 06:51:46;;;;;;;12.05;8.02;;;;;;;17.50;96.13;101558.03;5262596;28;20028;-69
2022/08/02 06:54:20;;;;;;;13.55;8.80;;;;;;;17.60;96.42;101559.75;5265596;28;20077;-69
2022/08/02 06:56:51;;;;;;;13.05;9.32;;;;;;;17.71;95.77;101564.09;5261599;28;20501;-69
2022/08/02 06:59:23;;;;;;;14.85;10.18;;;;;;;17.81;97.00;101564.06;5258278;28;20045;-69
2022/08/02 07:01:55;;;;;;;15.68;10.13;;;;;;;17.92;96.70;101561.22;5258550;28;20036;-69
2022/08/02 07:04:26;;;;;;;13.80;9.60;;;;;;;18.06;95.74;101562.56;5258463;28;20021;-69
2022/08/02 07:06:57;;;;;;;15.45;10.15;;;;;;;18.14;96.60;101570.81;5251872;28;20047;-69
2022/08/02 07:09:29;;;;;;;14.68;9.60;;;;;;;18.38;96.53;101564.84;5260429;28;20033;-70
2022/08/02 07:12:00;;;;;;;15.77;9.10;;;;;;;18.45;95.33;101567.78;5255291;28;20067;-69
2022/08/02 07:14:32;;;;;;;13.98;10.05;;;;;;;18.61;95.63;101576.06;5263252;28;20038;-69
2022/08/02 07:17:03;;;;;;;12.43;9.77;;;;;;;18.76;95.08;101575.56;5262342;28;20497;-71
2022/08/02 07:19:34;;;;;;;12.63;8.35;;;;;;;18.98;93.71;101563.44;5261979;28;20020;-69
2022/08/02 07:22:05;;;;;;;13.00;8.43;;;;;;;19.07;92.39;101564.41;5255977;28;20078;-69
2022/08/02 07:24:38;;;;;;;12.80;7.53;;;;;;;19.17;91.43;101554.31;5257910;28;20066;-69
2022/08/02 07:27:09;;;;;;;10.30;7.03;;;;;;;19.29;91.36;101552.22;5257276;28;20029;-70
2022/08/02 07:29:41;;;;;;;12.95;7.20;;;;;;;19.34;90.74;101545.31;5268220;28;20082;-68
2022/08/02 07:32:13;;;;;;;9.18;6.70;;;;;;;19.42;90.12;101557.22;5263976;28;20574;-69
2022/08/02 07:34:46;;;;;;;10.68;6.13;;;;;;;19.46;89.59;101553.19;5257350;28;20117;-68
2022/08/02 07:37:17;;;;;;;10.13;6.32;;;;;;;19.55;88.92;101552.25;5265792;28;20680;-69
2022/08/02 07:39:49;;;;;;;7.82;5.75;;;;;;;19.59;87.51;101549.03;5275134;28;20136;-69
2022/08/02 07:42:20;;;;;;;11.25;6.35;;;;;;;19.63;87.47;101549.59;5267438;28;20051;-69
2022/08/02 07:44:51;;;;;;;7.78;5.72;;;;;;;19.74;88.23;101546.63;5261902;28;20020;-68
2022/08/02 07:47:23;;;;;;;8.50;5.07;;;;;;;19.84;87.79;101548.38;5253268;28;20025;-69
2022/08/02 07:49:54;;;;;;;8.40;5.65;;;;;;;19.88;88.12;101549.75;5258705;28;20032;-69
2022/08/02 07:52:25;;;;;;;7.43;5.70;;;;;;;19.96;87.30;101553.38;5260024;28;20036;-68
2022/08/02 07:54:57;;;;;;;9.70;5.20;;;;;;;20.03;87.99;101566.25;5260810;28;20039;-68
2022/08/02 07:57:28;;;;;;;8.38;5.50;;;;;;;20.15;85.90;101564.94;5257143;28;20048;-68
2022/08/02 07:59:59;;;;;;;9.75;4.97;;;;;;;20.33;85.92;101557.59;5227035;28;1034263;-68
2022/08/02 08:02:30;;;;;;;9.70;4.95;;;;;;;20.45;86.04;101560.84;5259884;28;20035;-67
2022/08/02 08:05:02;;;;;;;7.88;4.82;;;;;;;20.54;83.38;101557.13;5261793;28;20120;-67
2022/08/02 08:07:34;;;;;;;5.68;3.33;;;;;;;20.76;82.04;101549.41;5254263;28;20097;-68
2022/08/02 08:10:07;;;;;;;6.82;3.28;;;;;;;20.92;80.77;101554.88;5265783;28;20122;-67
2022/08/02 08:12:39;;;;;;;6.13;3.53;;;;;;;20.89;81.77;101555.19;5263335;28;21851;-67
2022/08/02 08:15:10;;;;;;;4.70;3.30;;;;;;;21.02;78.81;101557.41;5268411;28;20432;-67
2022/08/02 08:17:42;;;;;;;4.68;3.10;;;;;;;21.08;79.57;101555.91;5258828;28;20059;-68
2022/08/02 08:20:13;;;;;;;6.72;2.90;;;;;;;21.09;77.58;101557.56;5263066;28;20032;-68
2022/08/02 08:22:44;;;;;;;5.43;2.85;;;;;;;21.14;79.68;101563.34;5263511;28;20360;-68
2022/08/02 08:25:16;;;;;;;7.30;3.22;;;;;;;21.25;77.82;101554.88;5258022;28;20487;-68
2022/08/02 08:27:48;;;;;;;4.57;2.80;;;;;;;21.41;76.56;101558.59;5260204;28;20453;-68
2022/08/02 08:30:21;;;;;;;6.35;2.60;;;;;;;21.46;74.97;101558.97;5291529;28;20119;-68
2022/08/02 08:32:52;;;;;;;6.72;2.30;;;;;;;21.59;75.92;101547.56;5265641;28;20032;-68
2022/08/02 08:35:23;;;;;;;6.47;2.50;;;;;;;21.65;74.24;101549.56;5261222;28;20072;-67
2022/08/02 08:37:55;;;;;;;5.38;2.72;;;;;;;21.80;72.81;101539.69;5259163;28;20017;-66
2022/08/02 08:40:26;;;;;;;5.85;2.58;;;;;;;21.81;74.00;101540.56;5264028;28;20383;-67
2022/08/02 08:42:57;;;;;;;5.75;2.58;;;;;;;22.02;70.45;101548.13;5257814;28;20044;-67
2022/08/02 08:45:29;;;;;;;5.10;2.22;;;;;;;22.09;70.05;101549.97;5260493;28;21082;-67
2022/08/02 08:48:08;;;;;;;3.92;2.20;;;;;;;22.31;71.19;101559.22;5257002;28;20463;-67
2022/08/02 08:50:48;;;;;;;5.40;2.20;;;;;;;22.33;68.09;101559.06;5259850;28;20471;-67
2022/08/02 08:53:22;;;;;;;4.25;1.90;;;;;;;22.50;67.93;101552.50;5258222;28;20059;-67
2022/08/02 08:55:56;;;;;;;4.72;1.70;;;;;;;22.55;65.18;101560.16;5261047;28;20116;-67
2022/08/02 08:58:28;;;;;;;5.22;1.70;;;;;;;22.54;64.76;101552.16;5259725;28;20040;-67
2022/08/02 09:00:59;;;;;;;3.22;1.63;;;;;;;22.76;63.63;101548.59;5257969;28;20040;-68
2022/08/02 09:03:31;;;;;;;5.20;1.70;;;;;;;22.76;62.86;101553.19;5261525;28;20089;-67
2022/08/02 09:06:02;;;;;;;2.97;1.30;;;;;;;22.83;61.21;101560.44;5261837;28;20028;-67
2022/08/02 09:08:34;;;;;;;5.20;1.70;;;;;;;22.84;61.39;101561.28;5257379;28;20022;-68
2022/08/02 09:11:16;;;;;;;4.07;1.67;;;;;;;22.81;62.31;101565.22;5261625;28;20040;-67
2022/08/02 09:13:56;;;;;;;4.00;1.58;;;;;;;22.73;60.24;101551.69;5258437;28;20029;-68
2022/08/02 09:16:31;;;;;;;3.55;1.40;;;;;;;22.78;58.45;101552.00;5258176;28;20029;-67
2022/08/02 09:19:19;;;;;;;5.45;1.92;;;;;;;22.85;60.00;101544.78;5257432;28;20104;-68
2022/08/02 09:22:03;;;;;;;4.10;1.35;;;;;;;22.81;60.67;101548.91;5263817;28;20039;-68
2022/08/02 09:24:46;;;;;;;3.88;1.50;;;;;;;22.92;60.41;101546.81;5258377;28;20024;-68
2022/08/02 09:27:20;;;;;;;5.05;1.80;;;;;;;23.19;58.70;101537.25;5259330;28;20035;-68
2022/08/02 09:29:53;;;;;;;3.47;1.40;;;;;;;23.18;60.71;101544.56;5258587;28;20094;-68
2022/08/02 09:32:24;;;;;;;4.87;1.50;;;;;;;23.26;58.50;101547.22;5252940;28;20048;-68
2022/08/02 09:34:55;;;;;;;3.13;1.48;;;;;;;23.28;56.67;101539.72;5264911;28;20941;-68
2022/08/02 09:37:29;;;;;;;4.18;1.52;;;;;;;23.32;56.14;101544.78;5256388;28;20028;-68
2022/08/02 09:40:02;;;;;;;3.72;1.40;;;;;;;23.56;56.99;101539.09;5253072;28;20848;-68
2022/08/02 09:42:34;;;;;;;5.53;1.55;;;;;;;23.53;57.52;101547.66;5254086;28;20395;-68
2022/08/02 09:45:05;;;;;;;3.42;1.48;;;;;;;23.59;55.41;101533.28;5261496;28;20035;-68
2022/08/02 09:47:36;;;;;;;4.43;1.60;;;;;;;23.81;54.99;101536.97;5250259;28;20283;-68
2022/08/02 09:50:08;;;;;;;4.20;1.38;;;;;;;23.97;52.85;101538.69;5257952;28;20094;-68
2022/08/02 09:52:41;;;;;;;3.83;1.42;;;;;;;24.07;52.85;101547.41;5258060;28;20060;-68
2022/08/02 09:55:13;;;;;;;4.50;1.20;;;;;;;24.10;52.27;101548.06;5261761;28;20029;-68
2022/08/02 09:57:44;;;;;;;2.97;1.33;;;;;;;24.20;52.03;101545.88;5262069;28;20612;-69
2022/08/02 10:00:16;;;;;;;3.28;1.08;;;;;;;24.13;52.30;101547.69;5261984;28;20048;-68
2022/08/02 10:03:10;;;;;;;3.60;1.30;;;;;;;24.26;52.92;101548.69;5265251;28;20028;-68
2022/08/02 10:05:54;;;;;;;4.65;1.30;;;;;;;24.24;53.15;101536.28;5266386;28;20093;-68
2022/08/02 10:08:26;;;;;;;3.58;1.40;;;;;;;24.26;50.65;101543.25;5258396;28;20037;-67
2022/08/02 10:11:00;;;;;;;4.63;1.50;;;;;;;24.32;50.28;101541.63;5258354;28;20153;-67
2022/08/02 10:13:33;;;;;;;2.67;1.08;;;;;;;24.32;50.41;101540.78;5256112;28;20355;-68
2022/08/02 10:16:05;;;;;;;2.53;1.13;;;;;;;24.36;50.40;101548.38;5261446;28;20036;-68
2022/08/02 10:18:37;;;;;;;4.68;1.00;;;;;;;24.35;51.57;101541.22;5257417;28;20100;-68
2022/08/02 10:21:22;;;;;;;2.03;1.05;;;;;;;24.38;48.70;101538.13;5256082;28;20622;-68
2022/08/02 10:24:06;;;;;;;2.80;1.25;;;;;;;24.46;48.87;101534.44;5259170;28;20036;-68
2022/08/02 10:26:41;;;;;;;2.72;0.90;;;;;;;24.55;47.99;101529.75;5257957;28;20025;-68
2022/08/02 10:29:18;;;;;;;2.53;0.82;;;;;;;24.81;48.20;101532.75;5259582;28;20025;-69
2022/08/02 10:31:56;;;;;;;1.85;0.80;;;;;;;25.02;46.10;101528.31;5265384;28;20079;-68
2022/08/02 10:34:33;;;;;;;3.45;0.90;;;;;;;25.18;46.50;101522.59;5261010;28;20036;-67
2022/08/02 10:37:07;;;;;;;4.22;0.90;;;;;;;25.40;45.50;101519.84;5260941;28;20534;-67
2022/08/02 10:39:43;;;;;;;3.75;1.10;;;;;;;25.53;47.06;101528.13;5257934;28;20491;-68
2022/08/02 10:42:45;;;;;;;2.83;1.08;;;;;;;25.72;47.82;101529.31;5259885;28;20023;-67
2022/08/02 10:45:20;;;;;;;3.40;0.90;;;;;;;25.60;47.76;101519.94;5263500;28;20032;-68
2022/08/02 10:48:06;;;;;;;7.72;1.33;;;;;;;25.62;48.10;101526.09;5262180;28;20029;-68
2022/08/02 10:50:43;;;;;;;3.33;1.15;;;;;;;25.63;45.46;101522.28;5256495;28;20847;-68
2022/08/02 10:53:18;;;;;;;3.20;1.00;;;;;;;25.63;45.95;101525.88;5259401;28;20037;-68
2022/08/02 10:55:49;;;;;;;5.68;1.25;;;;;;;25.54;46.35;101528.97;5259327;28;20025;-68
2022/08/02 10:58:23;;;;;;;8.77;1.60;;;;;;;25.72;45.54;101521.09;5260361;28;20037;-68
2022/08/02 11:00:56;;;;;;;;;;;;;;;25.83;48.73;101517.81;5259488;28;20039;-68
2022/08/02 11:03:27;;;;;;;10.00;1.25;;;;;;;25.88;45.05;101519.91;5264834;28;19924;-68
2022/08/02 11:06:04;;;;;;;11.90;1.80;;;;;;;25.87;45.62;101523.72;5264403;28;20260;-69
2022/08/02 11:08:36;;;;;;;4.95;1.10;;;;;;;25.77;46.39;101517.75;5259903;28;20295;-69
2022/08/02 11:11:07;;;;;;;5.55;1.00;;;;;;;25.72;42.59;101523.00;5263508;28;20406;-68
2022/08/02 11:14:06;;;;;;;3.45;1.02;;;;;;;25.86;43.25;101532.94;5257011;28;20028;-68
2022/08/02 11:16:55;;;;;;;2.78;0.85;;;;;;;25.74;42.53;101519.00;5263083;28;20054;-69
2022/08/02 11:19:27;;;;;;;2.72;0.90;;;;;;;25.92;42.50;101509.44;5262959;28;20042;-69
2022/08/02 11:22:08;;;;;;;2.03;0.70;;;;;;;26.05;45.37;101514.97;5258356;28;20560;-68
2022/08/02 11:24:39;;;;;;;3.88;1.05;;;;;;;25.99;44.22;101516.63;5258299;28;20029;-69
2022/08/02 11:27:19;;;;;;;2.10;0.95;;;;;;;26.04;43.36;101512.44;5261907;28;20024;-68
2022/08/02 11:29:51;;;;;;;2.97;1.20;;;;;;;26.19;43.01;101507.66;5272547;28;20898;-68
2022/08/02 11:32:24;;;;;;;2.65;1.10;;;;;;;26.37;41.96;101507.94;5265767;28;20032;-68
2022/08/02 11:34:56;;;;;;;3.17;0.98;;;;;;;26.35;39.25;101521.00;5261360;28;20629;-68
2022/08/02 11:37:35;;;;;;;2.15;0.60;;;;;;;26.48;39.75;101509.22;5267596;28;20487;-69
2022/08/02 11:40:12;;;;;;;3.30;0.70;;;;;;;26.37;40.37;101505.22;5260368;28;20036;-68
2022/08/02 11:42:49;;;;;;;3.30;0.93;;;;;;;26.47;41.07;101518.50;5262990;28;20044;-68
2022/08/02 11:45:25;;;;;;;2.55;0.80;;;;;;;26.47;43.66;101510.28;5255118;28;20064;-68
2022/08/02 11:47:56;;;;;;;5.15;0.68;;;;;;;26.44;40.84;101516.16;5261154;28;20029;-68
2022/08/02 11:50:27;;;;;;;2.58;0.90;;;;;;;26.44;40.83;101515.31;5260269;28;20028;-69
2022/08/02 11:52:59;;;;;;;2.75;0.95;;;;;;;26.49;39.91;101508.19;5262730;28;20040;-69
2022/08/02 11:55:31;;;;;;;4.63;1.05;;;;;;;26.62;41.19;101501.94;5260416;28;20089;-69